sensor_id;sensor_type;location;lat;lon;timestamp;pressure;altitude;pressure_sealevel;temperature;humidity
40954;BME280;26686;50.130;8.710;2022-12-18T00:00:21;101555.75;;;-5.92;73.12
40954;BME280;26686;50.130;8.710;2022-12-18T00:05:23;101541.91;;;-5.93;73.68
40954;BME280;26686;50.130;8.710;2022-12-18T00:10:24;101547.94;;;-5.97;73.95
40954;BME280;26686;50.130;8.710;2022-12-18T00:15:26;101547.09;;;-5.91;73.99
40954;BME280;26686;50.130;8.710;2022-12-18T00:20:27;101552.31;;;-5.88;74.46
40954;BME280;26686;50.130;8.710;2022-12-18T00:25:31;101555.03;;;-5.73;74.07
40954;BME280;26686;50.130;8.710;2022-12-18T00:30:33;101557.69;;;-5.60;73.39
40954;BME280;26686;50.130;8.710;2022-12-18T00:35:34;101549.00;;;-5.69;73.80
40954;BME280;26686;50.130;8.710;2022-12-18T00:40:36;101543.91;;;-5.56;72.99
40954;BME280;26686;50.130;8.710;2022-12-18T00:45:37;101538.66;;;-5.62;72.54
40954;BME280;26686;50.130;8.710;2022-12-18T00:50:39;101541.97;;;-5.85;72.97
40954;BME280;26686;50.130;8.710;2022-12-18T00:55:42;101555.69;;;-6.01;73.70
40954;BME280;26686;50.130;8.710;2022-12-18T01:00:43;101559.09;;;-6.09;74.04
40954;BME280;26686;50.130;8.710;2022-12-18T01:05:45;101563.44;;;-6.08;73.74
40954;BME280;26686;50.130;8.710;2022-12-18T01:10:46;101558.34;;;-5.92;73.58
40954;BME280;26686;50.130;8.710;2022-12-18T01:15:51;101562.72;;;-5.85;72.53
40954;BME280;26686;50.130;8.710;2022-12-18T01:20:52;101560.84;;;-6.05;73.39
40954;BME280;26686;50.130;8.710;2022-12-18T01:25:54;101569.50;;;-6.02;73.03
40954;BME280;26686;50.130;8.710;2022-12-18T01:30:56;101575.53;;;-6.05;73.23
40954;BME280;26686;50.130;8.710;2022-12-18T01:35:57;101577.28;;;-6.04;73.61
40954;BME280;26686;50.130;8.710;2022-12-18T01:41:00;101585.09;;;-5.99;73.66
40954;BME280;26686;50.130;8.710;2022-12-18T01:46:01;101592.84;;;-6.02;74.13
40954;BME280;26686;50.130;8.710;2022-12-18T01:51:04;101582.47;;;-6.01;74.23
40954;BME280;26686;50.130;8.710;2022-12-18T01:56:07;101573.03;;;-5.91;73.71
40954;BME280;26686;50.130;8.710;2022-12-18T02:01:10;101576.50;;;-5.91;73.93
40954;BME280;26686;50.130;8.710;2022-12-18T02:06:18;101580.84;;;-5.88;73.23
40954;BME280;26686;50.130;8.710;2022-12-18T02:11:32;101569.44;;;-6.09;74.13
40954;BME280;26686;50.130;8.710;2022-12-18T02:22:26;101572.84;;;-6.16;74.24
40954;BME280;26686;50.130;8.710;2022-12-18T02:27:32;101568.59;;;-6.09;74.21
40954;BME280;26686;50.130;8.710;2022-12-18T02:32:38;101554.81;;;-6.02;73.88
40954;BME280;26686;50.130;8.710;2022-12-18T02:37:43;101552.34;;;-5.85;74.01
40954;BME280;26686;50.130;8.710;2022-12-18T02:42:48;101556.00;;;-5.57;72.43
40954;BME280;26686;50.130;8.710;2022-12-18T02:47:50;101561.09;;;-5.68;71.92
40954;BME280;26686;50.130;8.710;2022-12-18T02:52:56;101567.19;;;-5.67;72.65
40954;BME280;26686;50.130;8.710;2022-12-18T02:58:37;101562.09;;;-5.53;71.44
40954;BME280;26686;50.130;8.710;2022-12-18T03:03:55;101563.56;;;-5.86;72.18
40954;BME280;26686;50.130;8.710;2022-12-18T03:09:00;101554.97;;;-5.80;72.04
40954;BME280;26686;50.130;8.710;2022-12-18T03:14:03;101575.59;;;-5.96;72.60
40954;BME280;26686;50.130;8.710;2022-12-18T03:19:16;101554.78;;;-6.05;72.90
40954;BME280;26686;50.130;8.710;2022-12-18T03:24:22;101556.53;;;-6.04;72.88
40954;BME280;26686;50.130;8.710;2022-12-18T03:29:28;101554.13;;;-5.79;72.90
40954;BME280;26686;50.130;8.710;2022-12-18T03:34:36;101554.25;;;-5.62;71.06
40954;BME280;26686;50.130;8.710;2022-12-18T03:39:39;101549.13;;;-5.50;71.04
40954;BME280;26686;50.130;8.710;2022-12-18T03:55:13;101561.38;;;-5.24;69.12
40954;BME280;26686;50.130;8.710;2022-12-18T04:00:17;101550.09;;;-5.36;68.61
40954;BME280;26686;50.130;8.710;2022-12-18T04:05:20;101556.03;;;-5.55;68.73
40954;BME280;26686;50.130;8.710;2022-12-18T04:10:21;101556.78;;;-5.72;69.84
40954;BME280;26686;50.130;8.710;2022-12-18T04:15:23;101550.69;;;-5.71;70.54
40954;BME280;26686;50.130;8.710;2022-12-18T04:20:25;101547.38;;;-5.53;68.94
40954;BME280;26686;50.130;8.710;2022-12-18T04:25:27;101547.34;;;-5.56;68.56
40954;BME280;26686;50.130;8.710;2022-12-18T04:30:28;101558.50;;;-5.71;69.52
40954;BME280;26686;50.130;8.710;2022-12-18T04:35:29;101544.63;;;-5.74;69.70
40954;BME280;26686;50.130;8.710;2022-12-18T04:40:31;101557.66;;;-5.68;70.72
40954;BME280;26686;50.130;8.710;2022-12-18T04:45:33;101536.78;;;-5.87;71.64
40954;BME280;26686;50.130;8.710;2022-12-18T04:50:34;101543.59;;;-5.99;71.91
40954;BME280;26686;50.130;8.710;2022-12-18T04:55:35;101537.53;;;-6.01;72.30
40954;BME280;26686;50.130;8.710;2022-12-18T05:00:37;101539.38;;;-5.87;72.56
40954;BME280;26686;50.130;8.710;2022-12-18T05:05:39;101537.63;;;-5.84;72.78
40954;BME280;26686;50.130;8.710;2022-12-18T05:10:40;101536.78;;;-5.87;72.85
40954;BME280;26686;50.130;8.710;2022-12-18T05:15:41;101551.44;;;-5.86;72.59
40954;BME280;26686;50.130;8.710;2022-12-18T05:20:43;101569.72;;;-5.75;72.68
40954;BME280;26686;50.130;8.710;2022-12-18T05:25:59;101561.22;;;-5.52;71.83
40954;BME280;26686;50.130;8.710;2022-12-18T05:31:02;101561.28;;;-5.46;71.19
40954;BME280;26686;50.130;8.710;2022-12-18T05:36:06;101561.19;;;-5.58;71.62
40954;BME280;26686;50.130;8.710;2022-12-18T05:41:10;101552.44;;;-5.73;72.46
40954;BME280;26686;50.130;8.710;2022-12-18T05:46:18;101544.66;;;-5.71;72.50
40954;BME280;26686;50.130;8.710;2022-12-18T05:51:21;101545.50;;;-5.72;71.99
40954;BME280;26686;50.130;8.710;2022-12-18T05:56:23;101545.47;;;-5.77;72.00
40954;BME280;26686;50.130;8.710;2022-12-18T06:01:26;101546.25;;;-5.87;71.70
40954;BME280;26686;50.130;8.710;2022-12-18T06:06:28;101557.47;;;-5.91;71.84
40954;BME280;26686;50.130;8.710;2022-12-18T06:11:30;101564.41;;;-5.87;71.14
40954;BME280;26686;50.130;8.710;2022-12-18T06:16:31;101566.09;;;-5.92;71.60
40954;BME280;26686;50.130;8.710;2022-12-18T06:21:34;101574.72;;;-5.99;71.87
40954;BME280;26686;50.130;8.710;2022-12-18T06:26:37;101567.81;;;-5.96;71.99
40954;BME280;26686;50.130;8.710;2022-12-18T06:31:39;101579.91;;;-5.95;71.74
40954;BME280;26686;50.130;8.710;2022-12-18T06:36:41;101584.25;;;-5.98;71.99
40954;BME280;26686;50.130;8.710;2022-12-18T06:41:42;101590.28;;;-5.99;71.92
40954;BME280;26686;50.130;8.710;2022-12-18T06:46:44;101599.00;;;-5.88;71.82
40954;BME280;26686;50.130;8.710;2022-12-18T06:51:47;101598.94;;;-5.94;70.97
40954;BME280;26686;50.130;8.710;2022-12-18T06:56:50;101596.44;;;-5.85;71.45
40954;BME280;26686;50.130;8.710;2022-12-18T07:01:51;101601.63;;;-5.85;71.76
40954;BME280;26686;50.130;8.710;2022-12-18T07:06:53;101596.53;;;-5.71;71.23
40954;BME280;26686;50.130;8.710;2022-12-18T07:11:55;101599.91;;;-5.80;71.15
40954;BME280;26686;50.130;8.710;2022-12-18T07:16:58;101618.88;;;-5.86;71.38
40954;BME280;26686;50.130;8.710;2022-12-18T07:22:00;101620.59;;;-5.89;71.28
40954;BME280;26686;50.130;8.710;2022-12-18T07:27:02;101614.47;;;-6.00;71.54
40954;BME280;26686;50.130;8.710;2022-12-18T07:32:04;101608.47;;;-5.90;71.85
40954;BME280;26686;50.130;8.710;2022-12-18T07:37:06;101603.41;;;-5.78;70.58
40954;BME280;26686;50.130;8.710;2022-12-18T07:42:07;101605.09;;;-5.81;70.27
40954;BME280;26686;50.130;8.710;2022-12-18T07:47:28;101619.78;;;-5.85;69.94
40954;BME280;26686;50.130;8.710;2022-12-18T07:52:31;101618.84;;;-5.89;70.06
40954;BME280;26686;50.130;8.710;2022-12-18T07:57:33;101622.34;;;-5.87;69.89
40954;BME280;26686;50.130;8.710;2022-12-18T08:02:51;101619.75;;;-5.88;70.19
40954;BME280;26686;50.130;8.710;2022-12-18T08:07:53;101616.28;;;-5.87;70.61
40954;BME280;26686;50.130;8.710;2022-12-18T08:12:55;101619.03;;;-5.70;70.75
40954;BME280;26686;50.130;8.710;2022-12-18T08:18:04;101614.81;;;-5.57;70.73
40954;BME280;26686;50.130;8.710;2022-12-18T08:23:11;101619.16;;;-5.53;70.98
40954;BME280;26686;50.130;8.710;2022-12-18T08:28:13;101621.09;;;-5.26;71.06
40954;BME280;26686;50.130;8.710;2022-12-18T08:33:17;101621.28;;;-4.98;69.98
40954;BME280;26686;50.130;8.710;2022-12-18T08:38:19;101612.56;;;-5.02;70.72
40954;BME280;26686;50.130;8.710;2022-12-18T08:43:22;101610.00;;;-4.99;71.30
40954;BME280;26686;50.130;8.710;2022-12-18T08:48:43;101603.09;;;-4.97;71.39
40954;BME280;26686;50.130;8.710;2022-12-18T08:53:46;101595.34;;;-4.86;71.56
40954;BME280;26686;50.130;8.710;2022-12-18T08:58:51;101575.44;;;-4.82;71.49
40954;BME280;26686;50.130;8.710;2022-12-18T09:03:52;101579.84;;;-4.67;71.25
40954;BME280;26686;50.130;8.710;2022-12-18T09:08:54;101598.97;;;-4.53;70.68
40954;BME280;26686;50.130;8.710;2022-12-18T09:13:56;101600.69;;;-4.52;69.61
40954;BME280;26686;50.130;8.710;2022-12-18T09:18:58;101607.63;;;-4.43;69.80
40954;BME280;26686;50.130;8.710;2022-12-18T09:24:00;101614.63;;;-4.25;68.71
40954;BME280;26686;50.130;8.710;2022-12-18T09:29:02;101614.59;;;-4.39;69.01
40954;BME280;26686;50.130;8.710;2022-12-18T09:34:05;101612.84;;;-4.41;68.88
40954;BME280;26686;50.130;8.710;2022-12-18T09:39:07;101615.50;;;-4.34;68.50
40954;BME280;26686;50.130;8.710;2022-12-18T09:44:36;101617.22;;;-4.27;68.11
40954;BME280;26686;50.130;8.710;2022-12-18T09:49:48;101618.13;;;-4.06;67.48
40954;BME280;26686;50.130;8.710;2022-12-18T10:05:18;101612.94;;;-3.37;64.45
40954;BME280;26686;50.130;8.710;2022-12-18T10:10:43;101622.50;;;-3.40;64.92
40954;BME280;26686;50.130;8.710;2022-12-18T10:15:58;101617.31;;;-3.40;65.21
40954;BME280;26686;50.130;8.710;2022-12-18T10:21:10;101620.75;;;-3.20;64.31
40954;BME280;26686;50.130;8.710;2022-12-18T10:26:13;101606.72;;;-2.74;63.95
40954;BME280;26686;50.130;8.710;2022-12-18T10:31:21;101597.09;;;-2.53;62.40
40954;BME280;26686;50.130;8.710;2022-12-18T10:36:25;101595.16;;;-2.17;61.25
40954;BME280;26686;50.130;8.710;2022-12-18T10:41:27;101595.56;;;-1.58;59.79
40954;BME280;26686;50.130;8.710;2022-12-18T10:46:29;101597.06;;;-1.32;57.73
40954;BME280;26686;50.130;8.710;2022-12-18T10:51:34;101597.03;;;-1.26;57.32
40954;BME280;26686;50.130;8.710;2022-12-18T10:56:37;101605.31;;;-0.84;57.09
40954;BME280;26686;50.130;8.710;2022-12-18T11:07:00;101584.16;;;-0.03;53.66
40954;BME280;26686;50.130;8.710;2022-12-18T11:12:08;101595.97;;;0.76;51.52
40954;BME280;26686;50.130;8.710;2022-12-18T11:17:20;101583.19;;;1.87;48.80
40954;BME280;26686;50.130;8.710;2022-12-18T11:22:34;101583.25;;;2.90;45.90
40954;BME280;26686;50.130;8.710;2022-12-18T11:27:38;101578.13;;;3.17;45.15
40954;BME280;26686;50.130;8.710;2022-12-18T11:32:43;101573.41;;;3.28;44.50
40954;BME280;26686;50.130;8.710;2022-12-18T11:37:53;101564.81;;;3.53;43.73
40954;BME280;26686;50.130;8.710;2022-12-18T11:43:25;101553.63;;;3.15;44.79
40954;BME280;26686;50.130;8.710;2022-12-18T11:48:34;101562.16;;;3.23;44.19
40954;BME280;26686;50.130;8.710;2022-12-18T11:53:39;101564.28;;;2.44;46.35
40954;BME280;26686;50.130;8.710;2022-12-18T11:58:50;101549.72;;;1.95;47.52
40954;BME280;26686;50.130;8.710;2022-12-18T12:04:12;101547.81;;;2.03;47.93
40954;BME280;26686;50.130;8.710;2022-12-18T12:09:32;101557.03;;;1.43;49.45
40954;BME280;26686;50.130;8.710;2022-12-18T12:15:01;101567.56;;;0.99;51.37
40954;BME280;26686;50.130;8.710;2022-12-18T12:20:39;101567.94;;;0.29;53.81
40954;BME280;26686;50.130;8.710;2022-12-18T12:25:50;101557.13;;;-0.04;54.76
40954;BME280;26686;50.130;8.710;2022-12-18T12:41:14;101544.94;;;-0.67;57.21
40954;BME280;26686;50.130;8.710;2022-12-18T12:46:40;101524.13;;;-0.75;57.94
40954;BME280;26686;50.130;8.710;2022-12-18T12:51:55;101532.19;;;-0.93;58.21
40954;BME280;26686;50.130;8.710;2022-12-18T12:57:16;101514.41;;;-1.36;60.37
40954;BME280;26686;50.130;8.710;2022-12-18T13:02:33;101518.84;;;-1.45;60.62
40954;BME280;26686;50.130;8.710;2022-12-18T13:07:44;101523.97;;;-1.35;61.52
40954;BME280;26686;50.130;8.710;2022-12-18T13:13:04;101517.22;;;-1.58;62.31
40954;BME280;26686;50.130;8.710;2022-12-18T13:33:49;101507.84;;;-1.78;63.69
40954;BME280;26686;50.130;8.710;2022-12-18T13:44:33;101507.91;;;-1.85;64.74
40954;BME280;26686;50.130;8.710;2022-12-18T13:49:43;101497.56;;;-1.94;64.90
40954;BME280;26686;50.130;8.710;2022-12-18T13:54:50;101479.44;;;-2.11;66.20
40954;BME280;26686;50.130;8.710;2022-12-18T13:59:52;101472.44;;;-2.08;66.88
40954;BME280;26686;50.130;8.710;2022-12-18T14:04:54;101469.91;;;-2.14;66.84
40954;BME280;26686;50.130;8.710;2022-12-18T14:10:00;101468.28;;;-2.29;68.17
40954;BME280;26686;50.130;8.710;2022-12-18T14:20:32;101469.09;;;-2.24;68.82
40954;BME280;26686;50.130;8.710;2022-12-18T14:25:37;101476.16;;;-2.35;69.28
40954;BME280;26686;50.130;8.710;2022-12-18T14:30:40;101468.34;;;-2.38;70.05
40954;BME280;26686;50.130;8.710;2022-12-18T14:36:00;101469.25;;;-2.42;70.51
40954;BME280;26686;50.130;8.710;2022-12-18T14:46:43;101470.13;;;-2.46;70.66
40954;BME280;26686;50.130;8.710;2022-12-18T14:51:49;101468.41;;;-2.46;71.14
40954;BME280;26686;50.130;8.710;2022-12-18T14:57:05;101459.78;;;-2.56;71.85
40954;BME280;26686;50.130;8.710;2022-12-18T15:02:21;101459.78;;;-2.57;71.92
40954;BME280;26686;50.130;8.710;2022-12-18T15:07:24;101455.41;;;-2.49;71.99
40954;BME280;26686;50.130;8.710;2022-12-18T15:17:34;101448.47;;;-2.55;72.42
40954;BME280;26686;50.130;8.710;2022-12-18T15:22:36;101444.09;;;-2.53;72.35
40954;BME280;26686;50.130;8.710;2022-12-18T15:27:38;101448.44;;;-2.49;72.35
40954;BME280;26686;50.130;8.710;2022-12-18T15:32:43;101448.38;;;-2.42;72.11
40954;BME280;26686;50.130;8.710;2022-12-18T15:37:45;101431.88;;;-2.41;72.36
40954;BME280;26686;50.130;8.710;2022-12-18T15:42:47;101423.22;;;-2.48;72.65
40954;BME280;26686;50.130;8.710;2022-12-18T15:48:21;101427.50;;;-2.42;72.27
40954;BME280;26686;50.130;8.710;2022-12-18T15:53:24;101427.50;;;-2.39;72.05
40954;BME280;26686;50.130;8.710;2022-12-18T15:58:26;101423.09;;;-2.31;71.49
40954;BME280;26686;50.130;8.710;2022-12-18T16:03:28;101418.72;;;-2.31;71.77
40954;BME280;26686;50.130;8.710;2022-12-18T16:08:30;101430.81;;;-2.20;71.11
40954;BME280;26686;50.130;8.710;2022-12-18T16:13:31;101408.19;;;-2.20;71.10
40954;BME280;26686;50.130;8.710;2022-12-18T16:18:33;101422.91;;;-2.13;70.52
40954;BME280;26686;50.130;8.710;2022-12-18T16:23:34;101413.28;;;-2.07;70.22
40954;BME280;26686;50.130;8.710;2022-12-18T16:28:36;101416.78;;;-2.05;70.58
40954;BME280;26686;50.130;8.710;2022-12-18T16:33:37;101408.06;;;-2.07;70.75
40954;BME280;26686;50.130;8.710;2022-12-18T16:38:40;101406.31;;;-2.02;70.85
40954;BME280;26686;50.130;8.710;2022-12-18T16:43:42;101385.44;;;-2.04;71.33
40954;BME280;26686;50.130;8.710;2022-12-18T16:48:45;101394.13;;;-2.03;71.20
40954;BME280;26686;50.130;8.710;2022-12-18T16:53:46;101392.31;;;-1.95;71.16
40954;BME280;26686;50.130;8.710;2022-12-18T16:58:56;101385.41;;;-2.01;71.33
40954;BME280;26686;50.130;8.710;2022-12-18T17:04:04;101381.94;;;-2.03;71.71
40954;BME280;26686;50.130;8.710;2022-12-18T17:09:09;101371.50;;;-2.04;71.81
40954;BME280;26686;50.130;8.710;2022-12-18T17:14:16;101376.69;;;-2.01;71.60
40954;BME280;26686;50.130;8.710;2022-12-18T17:19:19;101377.50;;;-1.93;71.80
40954;BME280;26686;50.130;8.710;2022-12-18T17:24:22;101385.34;;;-1.96;72.63
40954;BME280;26686;50.130;8.710;2022-12-18T17:29:23;101381.88;;;-1.95;72.03
40954;BME280;26686;50.130;8.710;2022-12-18T17:34:25;101380.09;;;-1.93;72.22
40954;BME280;26686;50.130;8.710;2022-12-18T17:39:28;101375.66;;;-1.85;71.76
40954;BME280;26686;50.130;8.710;2022-12-18T17:44:32;101370.44;;;-1.82;72.16
40954;BME280;26686;50.130;8.710;2022-12-18T17:49:34;101372.16;;;-1.82;72.25
40954;BME280;26686;50.130;8.710;2022-12-18T17:54:36;101367.84;;;-1.86;72.02
40954;BME280;26686;50.130;8.710;2022-12-18T17:59:40;101374.78;;;-1.84;72.26
40954;BME280;26686;50.130;8.710;2022-12-18T18:04:41;101369.53;;;-1.81;72.36
40954;BME280;26686;50.130;8.710;2022-12-18T18:09:43;101376.44;;;-1.76;72.09
40954;BME280;26686;50.130;8.710;2022-12-18T18:14:44;101365.97;;;-1.73;72.28
40954;BME280;26686;50.130;8.710;2022-12-18T18:19:46;101371.16;;;-1.70;72.56
40954;BME280;26686;50.130;8.710;2022-12-18T18:24:50;101365.88;;;-1.67;72.50
40954;BME280;26686;50.130;8.710;2022-12-18T18:29:51;101362.41;;;-1.66;72.41
40954;BME280;26686;50.130;8.710;2022-12-18T18:34:54;101369.34;;;-1.65;72.20
40954;BME280;26686;50.130;8.710;2022-12-18T18:39:56;101356.25;;;-1.64;72.48
40954;BME280;26686;50.130;8.710;2022-12-18T18:44:58;101353.69;;;-1.67;72.78
40954;BME280;26686;50.130;8.710;2022-12-18T18:49:59;101362.44;;;-1.69;72.62
40954;BME280;26686;50.130;8.710;2022-12-18T18:55:01;101358.03;;;-1.66;72.27
40954;BME280;26686;50.130;8.710;2022-12-18T19:00:14;101345.81;;;-1.62;72.27
40954;BME280;26686;50.130;8.710;2022-12-18T19:05:16;101334.50;;;-1.64;72.32
40954;BME280;26686;50.130;8.710;2022-12-18T19:10:18;101337.13;;;-1.64;72.08
40954;BME280;26686;50.130;8.710;2022-12-18T19:15:19;101317.16;;;-1.68;72.35
40954;BME280;26686;50.130;8.710;2022-12-18T19:20:22;101311.00;;;-1.64;72.42
40954;BME280;26686;50.130;8.710;2022-12-18T19:25:24;101307.47;;;-1.58;71.88
40954;BME280;26686;50.130;8.710;2022-12-18T19:30:41;101302.19;;;-1.54;72.59
40954;BME280;26686;50.130;8.710;2022-12-18T19:35:43;101303.00;;;-1.52;72.88
40954;BME280;26686;50.130;8.710;2022-12-18T19:40:45;101307.38;;;-1.51;73.29
40954;BME280;26686;50.130;8.710;2022-12-18T19:45:53;101302.97;;;-1.49;72.91
40954;BME280;26686;50.130;8.710;2022-12-18T19:50:55;101291.59;;;-1.45;72.46
40954;BME280;26686;50.130;8.710;2022-12-18T19:55:56;101283.69;;;-1.38;72.36
40954;BME280;26686;50.130;8.710;2022-12-18T20:01:00;101284.56;;;-1.38;72.32
40954;BME280;26686;50.130;8.710;2022-12-18T20:06:28;101292.41;;;-1.39;72.07
40954;BME280;26686;50.130;8.710;2022-12-18T20:11:30;101284.59;;;-1.39;71.93
40954;BME280;26686;50.130;8.710;2022-12-18T20:16:33;101286.34;;;-1.42;72.17
40954;BME280;26686;50.130;8.710;2022-12-18T20:21:35;101300.25;;;-1.39;71.80
40954;BME280;26686;50.130;8.710;2022-12-18T20:26:37;101285.38;;;-1.34;71.99
40954;BME280;26686;50.130;8.710;2022-12-18T20:31:39;101290.69;;;-1.40;71.85
40954;BME280;26686;50.130;8.710;2022-12-18T20:36:41;101271.53;;;-1.39;71.88
40954;BME280;26686;50.130;8.710;2022-12-18T20:41:43;101277.53;;;-1.34;71.77
40954;BME280;26686;50.130;8.710;2022-12-18T20:46:45;101289.75;;;-1.35;71.16
40954;BME280;26686;50.130;8.710;2022-12-18T20:51:54;101276.53;;;-1.26;70.83
40954;BME280;26686;50.130;8.710;2022-12-18T20:56:56;101268.16;;;-1.49;70.61
40954;BME280;26686;50.130;8.710;2022-12-18T21:01:58;101279.41;;;-1.46;70.44
40954;BME280;26686;50.130;8.710;2022-12-18T21:07:01;101268.06;;;-1.42;70.97
40954;BME280;26686;50.130;8.710;2022-12-18T21:12:04;101274.91;;;-1.34;70.84
40954;BME280;26686;50.130;8.710;2022-12-18T21:17:26;101288.13;;;-1.45;69.96
40954;BME280;26686;50.130;8.710;2022-12-18T21:22:29;101277.63;;;-1.40;70.54
40954;BME280;26686;50.130;8.710;2022-12-18T21:27:30;101278.41;;;-1.35;69.76
40954;BME280;26686;50.130;8.710;2022-12-18T21:32:31;101275.66;;;-1.25;69.71
40954;BME280;26686;50.130;8.710;2022-12-18T21:37:34;101280.91;;;-1.26;70.15
40954;BME280;26686;50.130;8.710;2022-12-18T21:42:35;101284.25;;;-1.18;69.85
40954;BME280;26686;50.130;8.710;2022-12-18T21:47:55;101271.34;;;-1.27;69.80
40954;BME280;26686;50.130;8.710;2022-12-18T21:52:57;101275.63;;;-1.21;69.48
40954;BME280;26686;50.130;8.710;2022-12-18T21:57:58;101276.50;;;-1.24;70.07
40954;BME280;26686;50.130;8.710;2022-12-18T22:03:00;101277.38;;;-1.23;69.14
40954;BME280;26686;50.130;8.710;2022-12-18T22:08:19;101277.31;;;-1.20;69.35
40954;BME280;26686;50.130;8.710;2022-12-18T22:13:21;101271.13;;;-1.15;68.79
40954;BME280;26686;50.130;8.710;2022-12-18T22:18:23;101272.06;;;-1.19;68.92
40954;BME280;26686;50.130;8.710;2022-12-18T22:23:24;101266.91;;;-1.23;69.30
40954;BME280;26686;50.130;8.710;2022-12-18T22:28:29;101270.44;;;-1.25;69.66
40954;BME280;26686;50.130;8.710;2022-12-18T22:33:49;101274.59;;;-1.14;69.34
40954;BME280;26686;50.130;8.710;2022-12-18T22:38:51;101263.28;;;-1.13;69.58
40954;BME280;26686;50.130;8.710;2022-12-18T22:43:53;101267.56;;;-1.08;69.42
40954;BME280;26686;50.130;8.710;2022-12-18T22:48:55;101253.59;;;-1.07;69.73
40954;BME280;26686;50.130;8.710;2022-12-18T22:53:56;101253.63;;;-1.08;69.42
40954;BME280;26686;50.130;8.710;2022-12-18T22:58:58;101251.84;;;-1.06;69.50
40954;BME280;26686;50.130;8.710;2022-12-18T23:04:00;101239.69;;;-1.09;69.31
40954;BME280;26686;50.130;8.710;2022-12-18T23:09:02;101237.91;;;-1.05;68.87
40954;BME280;26686;50.130;8.710;2022-12-18T23:14:03;101231.88;;;-1.10;68.62
40954;BME280;26686;50.130;8.710;2022-12-18T23:19:05;101242.25;;;-1.05;68.54
40954;BME280;26686;50.130;8.710;2022-12-18T23:24:07;101235.31;;;-1.07;68.84
40954;BME280;26686;50.130;8.710;2022-12-18T23:29:09;101229.16;;;-1.05;68.66
40954;BME280;26686;50.130;8.710;2022-12-18T23:34:11;101216.91;;;-1.00;68.44
40954;BME280;26686;50.130;8.710;2022-12-18T23:39:14;101211.63;;;-0.97;68.40
40954;BME280;26686;50.130;8.710;2022-12-18T23:44:29;101223.84;;;-0.99;68.58
40954;BME280;26686;50.130;8.710;2022-12-18T23:49:30;101212.50;;;-0.98;68.66
40954;BME280;26686;50.130;8.710;2022-12-18T23:54:32;101206.41;;;-0.97;67.84
40954;BME280;26686;50.130;8.710;2022-12-18T23:59:34;101199.38;;;-0.95;68.40
